Time;durP1;ratioP1;P1;durP2;ratioP2;P2;SDS_P1;SDS_P2;PMS_P1;PMS_P2;Temp;Humidity;BMP_temperature;BMP_pressure;BME280_temperature;BME280_humidity;BME280_pressure;Samples;Min_cycle;Max_cycle;Signal;HPM_P1;HPM_P2
2022/09/17 00:01:21;;;;;;;2.95;1.63;;;;;;;10.33;100.00;99941.78;4846570;29;20231;-73
2022/09/17 00:03:52;;;;;;;2.92;2.00;;;;;;;10.50;100.00;99939.09;4842566;29;20208;-72
2022/09/17 00:06:20;;;;;;;5.40;1.60;;;;;;;10.47;100.00;99946.44;4844274;29;20706;-72
2022/09/17 00:08:47;;;;;;;4.70;1.73;;;;;;;10.52;100.00;99942.59;4844280;29;20225;-72
2022/09/17 00:11:16;;;;;;;8.93;4.68;;;;;;;10.52;100.00;99936.34;4837970;29;20219;-73
2022/09/17 00:13:44;;;;;;;4.68;1.92;;;;;;;10.43;100.00;99949.31;4840120;29;20419;-74
2022/09/17 00:16:12;;;;;;;4.00;1.70;;;;;;;10.38;100.00;99942.44;4835017;29;20249;-73
2022/09/17 00:18:40;;;;;;;3.45;1.60;;;;;;;10.36;100.00;99957.81;4839453;29;20310;-72
2022/09/17 00:21:08;;;;;;;2.25;1.60;;;;;;;10.43;100.00;99956.53;4846239;29;20237;-73
2022/09/17 00:23:34;;;;;;;5.35;1.75;;;;;;;10.51;100.00;99966.88;4843838;29;20205;-73
2022/09/17 00:26:05;;;;;;;7.43;1.60;;;;;;;10.59;100.00;99951.22;4843078;29;20212;-73
2022/09/17 00:28:31;;;;;;;2.30;1.20;;;;;;;10.68;100.00;99953.41;4850740;29;20266;-73
2022/09/17 00:30:58;;;;;;;18.98;9.50;;;;;;;10.55;100.00;99947.78;4840063;29;20685;-71
2022/09/17 00:33:26;;;;;;;4.10;1.65;;;;;;;10.48;100.00;99940.13;4838216;29;20211;-72
2022/09/17 00:35:58;;;;;;;3.17;1.67;;;;;;;10.43;100.00;99940.38;4844396;29;20210;-71
2022/09/17 00:38:25;;;;;;;5.68;1.73;;;;;;;10.45;100.00;99943.84;4840305;29;20783;-73
2022/09/17 00:40:51;;;;;;;2.70;1.55;;;;;;;10.43;100.00;99953.84;4834418;29;20209;-74
2022/09/17 00:43:34;;;;;;;7.72;2.03;;;;;;;10.43;100.00;99959.22;4842187;29;20239;-72
2022/09/17 00:46:01;;;;;;;4.30;2.00;;;;;;;10.37;100.00;99952.31;4837768;29;20213;-73
2022/09/17 00:48:29;;;;;;;4.53;1.80;;;;;;;10.41;100.00;99958.44;4844891;29;20660;-73
2022/09/17 00:51:00;;;;;;;3.40;1.65;;;;;;;10.48;100.00;99956.28;4843545;29;20212;-73
2022/09/17 00:53:29;;;;;;;4.80;1.90;;;;;;;10.51;100.00;99954.28;4844003;29;20242;-74
2022/09/17 00:56:01;;;;;;;2.95;1.60;;;;;;;10.54;100.00;99950.59;4851175;29;20241;-72
2022/09/17 00:58:29;;;;;;;5.00;1.75;;;;;;;10.51;100.00;99951.59;4845253;29;20722;-72
2022/09/17 01:00:58;;;;;;;3.78;1.85;;;;;;;10.49;100.00;99947.25;4852545;29;20239;-72
2022/09/17 01:03:25;;;;;;;7.13;2.22;;;;;;;10.47;100.00;99944.66;4843514;29;20230;-73
2022/09/17 01:06:03;;;;;;;4.65;1.58;;;;;;;10.40;100.00;99956.66;4839640;29;20667;-73
2022/09/17 01:08:38;;;;;;;8.02;1.75;;;;;;;10.37;100.00;99949.63;4850401;29;20222;-72
2022/09/17 01:11:21;;;;;;;4.57;2.65;;;;;;;10.38;100.00;99945.13;4837022;29;20215;-75
2022/09/17 01:13:59;;;;;;;4.35;1.73;;;;;;;10.29;100.00;99948.28;4838828;29;20695;-72
2022/09/17 01:16:37;;;;;;;4.32;1.65;;;;;;;10.25;100.00;99952.94;4847414;29;20270;-72
2022/09/17 01:19:26;;;;;;;7.57;1.83;;;;;;;10.14;100.00;99948.09;4848235;29;20226;-73
2022/09/17 01:22:02;;;;;;;3.30;1.50;;;;;;;10.09;100.00;99954.66;4840968;29;20208;-74
2022/09/17 01:24:54;;;;;;;4.53;1.77;;;;;;;10.12;100.00;99954.50;4846194;29;20604;-72
2022/09/17 01:28:00;;;;;;;3.88;1.90;;;;;;;10.05;100.00;99948.56;4846163;29;20241;-72
2022/09/17 01:30:39;;;;;;;3.25;1.60;;;;;;;9.96;100.00;99954.41;4843572;29;20215;-72
2022/09/17 01:33:14;;;;;;;5.57;3.28;;;;;;;9.96;100.00;99960.63;4839413;29;20307;-72
2022/09/17 01:35:49;;;;;;;9.05;5.20;;;;;;;9.91;100.00;99965.38;4843233;29;20210;-71
2022/09/17 01:38:26;;;;;;;3.55;1.90;;;;;;;10.00;100.00;99973.00;4844659;29;20241;-72
2022/09/17 01:41:01;;;;;;;4.55;1.83;;;;;;;10.03;100.00;99969.28;4842982;29;20207;-71
2022/09/17 01:43:35;;;;;;;2.58;1.55;;;;;;;10.08;100.00;99964.53;4850408;29;20532;-72
2022/09/17 01:46:12;;;;;;;3.03;1.50;;;;;;;10.08;100.00;99971.75;4838878;29;20207;-72
2022/09/17 01:48:43;;;;;;;5.10;2.15;;;;;;;10.14;100.00;99963.38;4829682;29;20233;-72
2022/09/17 01:51:13;;;;;;;5.47;1.83;;;;;;;10.11;100.00;99964.41;4844015;29;20218;-72
2022/09/17 01:53:45;;;;;;;6.65;1.80;;;;;;;10.15;100.00;99960.59;4849548;29;20580;-72
2022/09/17 01:56:17;;;;;;;4.25;1.80;;;;;;;10.21;100.00;99960.28;4846950;29;20716;-72
2022/09/17 01:58:48;;;;;;;5.82;2.47;;;;;;;10.19;100.00;99972.06;4844030;29;20319;-72
2022/09/17 02:01:20;;;;;;;3.22;1.92;;;;;;;10.22;100.00;99971.91;4846552;29;20214;-72
2022/09/17 02:03:52;;;;;;;6.38;2.33;;;;;;;10.26;100.00;99970.81;4850671;29;20210;-71
2022/09/17 02:06:24;;;;;;;3.47;1.98;;;;;;;10.25;100.00;99974.47;4856762;29;20276;-73
2022/09/17 02:08:55;;;;;;;6.43;1.70;;;;;;;10.29;100.00;99968.00;4849303;29;20315;-73
2022/09/17 02:11:22;;;;;;;6.85;1.75;;;;;;;10.32;100.00;99967.84;4851225;29;20240;-72
2022/09/17 02:13:54;;;;;;;4.47;1.92;;;;;;;10.38;100.00;99966.66;4839785;29;20219;-73
2022/09/17 02:16:26;;;;;;;4.93;2.10;;;;;;;10.36;100.00;99966.75;4843625;29;20957;-73
2022/09/17 02:18:57;;;;;;;6.20;2.33;;;;;;;10.39;100.00;99966.56;4838856;29;20239;-72
2022/09/17 02:21:30;;;;;;;4.93;2.00;;;;;;;10.44;100.00;99960.94;4846611;29;20206;-73
2022/09/17 02:24:05;;;;;;;4.18;2.22;;;;;;;10.43;100.00;99961.91;4844776;29;20568;-71
2022/09/17 02:26:35;;;;;;;4.65;2.00;;;;;;;10.52;100.00;99965.94;4846633;29;20215;-72
2022/09/17 02:29:08;;;;;;;4.25;1.98;;;;;;;10.51;100.00;99962.38;4846093;29;20220;-71
2022/09/17 02:31:36;;;;;;;7.07;2.00;;;;;;;10.52;100.00;99974.91;4850025;29;20238;-71
2022/09/17 02:34:05;;;;;;;5.70;2.25;;;;;;;10.49;100.00;99975.06;4853543;29;20287;-71
2022/09/17 02:36:34;;;;;;;5.53;2.20;;;;;;;10.49;100.00;99967.00;4850942;29;20211;-72
2022/09/17 02:39:02;;;;;;;5.53;2.17;;;;;;;10.40;100.00;99965.63;4850213;29;20239;-72
2022/09/17 02:41:43;;;;;;;6.65;2.08;;;;;;;10.35;100.00;99964.97;4850770;29;20223;-72
2022/09/17 02:44:19;;;;;;;7.22;2.45;;;;;;;10.20;100.00;99974.69;4846470;29;20290;-71
2022/09/17 02:47:04;;;;;;;7.18;2.67;;;;;;;10.05;100.00;99975.44;4849262;29;20578;-70
2022/09/17 02:49:43;;;;;;;5.57;2.60;;;;;;;9.94;100.00;99984.06;4840144;29;20257;-70
2022/09/17 02:52:18;;;;;;;4.55;2.25;;;;;;;9.95;100.00;99990.28;4837934;29;20210;-73
2022/09/17 02:54:53;;;;;;;5.75;2.67;;;;;;;9.93;100.00;99986.84;4840243;29;20218;-71
2022/09/17 02:57:24;;;;;;;4.85;2.33;;;;;;;9.81;100.00;99989.19;4846289;29;20244;-72
2022/09/17 02:59:57;;;;;;;11.52;3.63;;;;;;;9.89;100.00;99994.19;4845333;29;20235;-71
2022/09/17 03:02:30;;;;;;;8.00;2.85;;;;;;;9.79;100.00;99993.75;4846687;29;20212;-70
2022/09/17 03:04:57;;;;;;;6.90;3.08;;;;;;;9.78;100.00;99996.50;4839900;29;20202;-71
2022/09/17 03:07:25;;;;;;;5.07;2.53;;;;;;;9.88;100.00;99999.63;4839609;29;20215;-71
2022/09/17 03:09:52;;;;;;;6.88;3.25;;;;;;;9.76;100.00;99984.97;4845302;29;20232;-71
2022/09/17 03:12:18;;;;;;;6.28;3.10;;;;;;;9.72;100.00;99997.69;4856027;29;20634;-71
2022/09/17 03:14:45;;;;;;;4.20;2.70;;;;;;;9.76;100.00;99993.03;4845229;29;20337;-71
2022/09/17 03:17:13;;;;;;;7.35;2.97;;;;;;;9.78;100.00;99997.38;4846074;29;20223;-71
2022/09/17 03:19:42;;;;;;;5.00;2.80;;;;;;;9.77;100.00;100001.03;4837760;29;20239;-70
2022/09/17 03:22:08;;;;;;;9.02;3.60;;;;;;;9.70;100.00;100001.38;4848920;29;20213;-71
2022/09/17 03:24:35;;;;;;;9.27;3.50;;;;;;;9.74;100.00;100011.03;4839645;29;20206;-70
2022/09/17 03:27:01;;;;;;;6.78;2.92;;;;;;;9.65;100.00;100014.19;4845275;29;20203;-72
2022/09/17 03:29:28;;;;;;;9.40;3.60;;;;;;;9.66;100.00;100015.94;4846093;29;20242;-71
2022/09/17 03:31:54;;;;;;;6.15;3.30;;;;;;;9.71;100.00;100016.59;4846657;29;20211;-71
2022/09/17 03:34:21;;;;;;;5.55;2.90;;;;;;;9.84;100.00;100020.44;4845194;29;20214;-71
2022/09/17 03:36:49;;;;;;;5.00;3.40;;;;;;;9.88;100.00;100016.66;4844991;29;20201;-72
2022/09/17 03:39:15;;;;;;;6.53;3.50;;;;;;;9.92;100.00;100018.22;4854744;29;20616;-72
2022/09/17 03:41:42;;;;;;;5.35;3.33;;;;;;;9.98;100.00;100020.63;4858028;29;20215;-72
2022/09/17 03:44:09;;;;;;;7.35;3.08;;;;;;;9.94;100.00;100020.84;4845607;29;20253;-72
2022/09/17 03:46:36;;;;;;;6.32;3.25;;;;;;;9.97;100.00;100026.97;4864270;29;20206;-71
2022/09/17 03:49:03;;;;;;;9.27;3.47;;;;;;;9.95;100.00;100022.56;4863277;29;20303;-72
2022/09/17 03:51:30;;;;;;;7.50;3.20;;;;;;;9.93;100.00;100027.19;4867286;29;20279;-69
2022/09/17 03:53:58;;;;;;;10.10;4.00;;;;;;;9.94;100.00;100026.22;4860078;29;20238;-71
2022/09/17 03:56:25;;;;;;;8.13;3.60;;;;;;;9.96;100.00;100035.97;4860490;29;20228;-70
2022/09/17 03:58:52;;;;;;;6.07;3.45;;;;;;;9.99;100.00;100025.06;4861401;29;20233;-70
2022/09/17 04:01:18;;;;;;;8.57;3.85;;;;;;;9.99;100.00;100032.25;4853195;29;20212;-71
2022/09/17 04:03:45;;;;;;;8.88;3.67;;;;;;;9.94;100.00;100035.16;4853307;29;20212;-72
2022/09/17 04:06:11;;;;;;;9.90;4.03;;;;;;;9.95;100.00;100045.00;4851848;29;20237;-72
2022/09/17 04:08:38;;;;;;;6.07;3.35;;;;;;;9.99;100.00;100043.00;4849087;29;20238;-72
2022/09/17 04:11:06;;;;;;;6.03;3.75;;;;;;;10.01;100.00;100049.19;4856513;29;20241;-72
2022/09/17 04:13:33;;;;;;;6.43;3.00;;;;;;;9.95;100.00;100047.69;4846858;29;20210;-72
2022/09/17 04:15:59;;;;;;;4.50;3.10;;;;;;;9.98;100.00;100052.03;4855284;29;20282;-72
2022/09/17 04:18:26;;;;;;;12.05;3.67;;;;;;;9.94;100.00;100045.91;4847496;29;20589;-73
2022/09/17 04:20:53;;;;;;;4.90;3.53;;;;;;;9.96;100.00;100051.25;4853829;29;20206;-73
2022/09/17 04:23:19;;;;;;;4.85;3.13;;;;;;;9.96;100.00;100053.94;4851593;29;20209;-73
2022/09/17 04:25:46;;;;;;;9.98;4.00;;;;;;;9.97;100.00;100045.78;4880425;23;20239;-71
2022/09/17 04:28:14;;;;;;;10.35;3.33;;;;;;;9.94;100.00;100047.75;4885440;29;20205;-72
2022/09/17 04:30:41;;;;;;;8.20;3.67;;;;;;;9.91;100.00;100048.78;4884460;29;20298;-73
2022/09/17 04:33:08;;;;;;;6.13;3.95;;;;;;;9.92;100.00;100055.00;4892946;29;20216;-72
2022/09/17 04:35:35;;;;;;;10.00;3.65;;;;;;;9.96;100.00;100052.09;4876272;29;20715;-71
2022/09/17 04:38:01;;;;;;;10.27;4.30;;;;;;;9.95;100.00;100063.81;4882568;29;20208;-72
2022/09/17 04:40:29;;;;;;;6.97;3.75;;;;;;;9.99;100.00;100067.22;4881641;29;20675;-72
2022/09/17 04:42:58;;;;;;;8.73;3.83;;;;;;;10.01;100.00;100073.41;4881654;29;20262;-71
2022/09/17 04:45:26;;;;;;;6.40;3.95;;;;;;;9.97;100.00;100069.09;4882923;29;20220;-70
2022/09/17 04:47:53;;;;;;;7.57;4.07;;;;;;;9.98;100.00;100078.94;4880879;29;20222;-72
2022/09/17 04:50:19;;;;;;;10.85;4.15;;;;;;;10.01;100.00;100070.72;4882065;29;21286;-72
2022/09/17 04:52:47;;;;;;;6.18;3.75;;;;;;;9.96;100.00;100073.63;4883086;29;20200;-71
2022/09/17 04:55:14;;;;;;;7.68;3.88;;;;;;;10.06;100.00;100076.72;4881273;29;20244;-71
2022/09/17 04:57:46;;;;;;;9.75;4.18;;;;;;;10.08;100.00;100076.66;4881491;29;20205;-72
2022/09/17 05:00:14;;;;;;;8.48;3.95;;;;;;;10.00;100.00;100080.59;4882233;29;20210;-72
2022/09/17 05:02:42;;;;;;;8.75;3.88;;;;;;;10.00;100.00;100074.38;4881719;29;20728;-72
2022/09/17 05:05:09;;;;;;;6.88;3.72;;;;;;;9.98;100.00;100084.31;4881418;29;20236;-72
2022/09/17 05:07:38;;;;;;;7.00;3.85;;;;;;;9.95;100.00;100081.75;4881721;29;20221;-73
2022/09/17 05:10:05;;;;;;;11.20;3.90;;;;;;;9.92;100.00;100084.59;4880593;29;20218;-71
2022/09/17 05:12:31;;;;;;;6.10;3.35;;;;;;;9.94;100.00;100083.59;4881504;29;20211;-73
2022/09/17 05:14:58;;;;;;;7.85;4.10;;;;;;;9.88;100.00;100094.66;4880091;29;20233;-73
2022/09/17 05:17:24;;;;;;;7.00;4.20;;;;;;;9.88;100.00;100094.66;4880669;29;20221;-71
2022/09/17 05:19:53;;;;;;;7.47;3.58;;;;;;;9.85;100.00;100083.16;4882092;29;20207;-72
2022/09/17 05:22:20;;;;;;;6.40;3.70;;;;;;;9.85;100.00;100085.84;4880458;29;20292;-71
2022/09/17 05:24:46;;;;;;;9.73;4.53;;;;;;;9.87;100.00;100087.50;4876587;29;20209;-71
2022/09/17 05:27:13;;;;;;;8.90;4.97;;;;;;;9.81;100.00;100079.72;4875827;29;20210;-71
2022/09/17 05:29:39;;;;;;;12.18;4.88;;;;;;;9.85;100.00;100084.03;4872256;29;20205;-73
2022/09/17 05:32:06;;;;;;;11.32;4.40;;;;;;;9.87;100.00;100094.72;4878707;29;20665;-72
2022/09/17 05:34:33;;;;;;;5.00;3.75;;;;;;;9.88;100.00;100085.69;4877653;29;20692;-72
2022/09/17 05:37:01;;;;;;;8.77;5.00;;;;;;;9.81;100.00;100086.00;4876327;29;20237;-71
2022/09/17 05:39:27;;;;;;;5.68;3.90;;;;;;;9.78;100.00;100088.81;4876986;29;20957;-72
2022/09/17 05:41:55;;;;;;;7.88;3.88;;;;;;;9.75;100.00;100086.28;4877422;29;20208;-73
2022/09/17 05:44:22;;;;;;;5.80;3.25;;;;;;;9.76;100.00;100090.72;4878125;29;20239;-73
2022/09/17 05:46:49;;;;;;;4.28;3.60;;;;;;;9.80;100.00;100097.69;4878948;29;20261;-73
2022/09/17 05:49:15;;;;;;;6.95;3.78;;;;;;;9.78;100.00;100102.25;4873391;29;20236;-72
2022/09/17 05:51:42;;;;;;;11.27;3.90;;;;;;;9.78;100.00;100115.72;4877995;29;20209;-71
2022/09/17 05:54:10;;;;;;;6.90;3.90;;;;;;;9.85;100.00;100113.59;4878607;29;20381;-73
2022/09/17 05:56:36;;;;;;;6.30;3.50;;;;;;;9.87;100.00;100130.56;4871932;29;20708;-71
2022/09/17 05:59:03;;;;;;;6.47;4.05;;;;;;;10.02;100.00;100127.16;4877835;29;20220;-73
2022/09/17 06:01:30;;;;;;;6.07;4.40;;;;;;;10.09;100.00;100119.66;4879473;29;20703;-72
2022/09/17 06:03:57;;;;;;;4.72;3.78;;;;;;;10.10;100.00;100121.38;4878225;29;20199;-71
2022/09/17 06:06:23;;;;;;;7.47;4.50;;;;;;;10.20;100.00;100119.16;4877397;29;20222;-72
2022/09/17 06:08:50;;;;;;;6.60;3.78;;;;;;;10.39;100.00;100119.16;4878321;29;20645;-73
2022/09/17 06:11:18;;;;;;;9.27;4.25;;;;;;;10.55;100.00;100130.91;4872221;29;20233;-75
2022/09/17 06:13:44;;;;;;;5.22;3.95;;;;;;;10.85;100.00;100117.72;4880797;29;20203;-73
2022/09/17 06:16:11;;;;;;;6.85;4.13;;;;;;;10.92;100.00;100110.22;4881334;29;20238;-71
2022/09/17 06:18:37;;;;;;;5.80;4.10;;;;;;;10.87;100.00;100098.78;4875376;29;20207;-73
2022/09/17 06:21:04;;;;;;;9.15;4.85;;;;;;;10.60;100.00;100103.72;4878877;29;20259;-70
2022/09/17 06:23:34;;;;;;;7.93;4.88;;;;;;;10.51;100.00;100090.75;4878805;29;20255;-74
2022/09/17 06:26:01;;;;;;;11.20;5.90;;;;;;;10.53;100.00;100103.16;4880360;29;20287;-72
2022/09/17 06:28:29;;;;;;;11.15;5.90;;;;;;;10.64;100.00;100100.81;4881516;29;20203;-71
2022/09/17 06:31:00;;;;;;;8.73;4.90;;;;;;;11.08;100.00;100096.81;4877923;29;20214;-69
2022/09/17 06:33:27;;;;;;;16.38;5.85;;;;;;;11.40;100.00;100099.63;4881023;29;20203;-68
2022/09/17 06:35:59;;;;;;;8.00;5.45;;;;;;;11.68;100.00;100085.50;4880704;29;20238;-69
2022/09/17 06:38:25;;;;;;;9.13;4.68;;;;;;;11.80;100.00;100089.34;4878538;29;20211;-68
2022/09/17 06:40:52;;;;;;;5.55;4.40;;;;;;;12.04;100.00;100085.31;4882126;29;20207;-69
2022/09/17 06:43:19;;;;;;;12.35;4.63;;;;;;;11.96;100.00;100071.38;4883087;29;20212;-71
2022/09/17 06:45:52;;;;;;;5.65;4.55;;;;;;;12.19;100.00;100080.88;4876114;29;20223;-71
2022/09/17 06:48:19;;;;;;;5.57;4.88;;;;;;;12.22;100.00;100075.28;4879619;29;20212;-68
2022/09/17 06:50:45;;;;;;;12.63;5.00;;;;;;;12.31;100.00;100076.59;4881712;29;20212;-69
2022/09/17 06:53:12;;;;;;;9.10;5.32;;;;;;;12.62;100.00;100080.22;4875938;29;20936;-71
2022/09/17 06:55:38;;;;;;;9.80;5.10;;;;;;;13.17;100.00;100085.00;4876640;29;20238;-69
2022/09/17 06:58:05;;;;;;;8.27;4.53;;;;;;;13.61;100.00;100075.13;4877532;29;20212;-68
2022/09/17 07:00:31;;;;;;;8.65;5.20;;;;;;;13.80;100.00;100078.41;4877591;29;20204;-72
2022/09/17 07:03:00;;;;;;;11.00;5.25;;;;;;;14.61;100.00;100080.38;4876966;29;20589;-65
2022/09/17 07:05:29;;;;;;;7.95;4.53;;;;;;;15.14;100.00;100081.22;4879695;29;20235;-67
2022/09/17 07:07:56;;;;;;;11.60;5.30;;;;;;;15.50;100.00;100079.63;4874983;29;20214;-66
2022/09/17 07:10:23;;;;;;;16.02;5.15;;;;;;;15.58;99.40;100076.34;4882881;29;20212;-68
2022/09/17 07:12:49;;;;;;;7.20;5.07;;;;;;;15.44;99.76;100071.91;4879850;29;20566;-68
2022/09/17 07:15:16;;;;;;;10.15;5.05;;;;;;;14.99;100.00;100085.88;4876351;29;20235;-64
2022/09/17 07:17:43;;;;;;;12.80;7.65;;;;;;;15.24;100.00;100103.19;4880443;29;20220;-76
2022/09/17 07:20:11;;;;;;;10.32;4.65;;;;;;;14.78;100.00;100088.19;4884707;29;20298;-76
2022/09/17 07:22:38;;;;;;;8.90;5.28;;;;;;;15.50;100.00;100081.47;4882496;29;20223;-77
2022/09/17 07:25:06;;;;;;;9.10;5.93;;;;;;;15.74;92.96;100082.47;4881624;29;20289;-77
2022/09/17 07:27:33;;;;;;;7.82;4.10;;;;;;;15.72;99.20;100083.56;4879380;29;20204;-76
2022/09/17 07:30:00;;;;;;;8.82;5.15;;;;;;;16.12;98.45;100083.38;4878455;29;20210;-77
2022/09/17 07:32:29;;;;;;;8.55;4.45;;;;;;;15.76;93.09;100085.97;4883232;29;20211;-76
2022/09/17 07:34:56;;;;;;;10.25;7.35;;;;;;;16.18;91.13;100086.50;4889127;29;20231;-77
2022/09/17 07:37:24;;;;;;;8.02;5.20;;;;;;;16.49;88.21;100088.81;4879086;29;20582;-76
2022/09/17 07:39:50;;;;;;;10.65;4.40;;;;;;;15.96;88.81;100087.19;4876616;29;20221;-71
2022/09/17 07:42:17;;;;;;;9.55;5.00;;;;;;;15.38;90.53;100086.78;4879671;29;20218;-74
2022/09/17 07:44:45;;;;;;;7.30;4.65;;;;;;;15.36;91.28;100096.03;4879710;29;21727;-74
2022/09/17 07:47:12;;;;;;;9.15;5.22;;;;;;;15.42;93.22;100092.84;4876446;29;20286;-73
2022/09/17 07:49:39;;;;;;;9.35;5.53;;;;;;;15.61;93.54;100095.16;4881795;29;20205;-74
2022/09/17 07:52:06;;;;;;;11.13;5.13;;;;;;;16.50;84.89;100091.38;4882979;29;20666;-74
2022/09/17 07:54:35;;;;;;;7.38;4.97;;;;;;;16.81;84.07;100089.13;4878651;29;20213;-75
2022/09/17 07:57:02;;;;;;;7.28;4.22;;;;;;;17.49;80.10;100099.19;4880852;29;20294;-75
2022/09/17 07:59:29;;;;;;;9.32;4.90;;;;;;;17.75;76.82;100093.56;4876215;29;20204;-74
2022/09/17 08:01:55;;;;;;;12.07;5.10;;;;;;;16.92;75.49;100097.31;4883197;29;20217;-74
2022/09/17 08:04:22;;;;;;;6.18;4.68;;;;;;;16.71;77.72;100094.38;4882140;29;20794;-75
2022/09/17 08:06:49;;;;;;;11.90;4.60;;;;;;;16.64;78.23;100080.38;4868597;29;20227;-73
2022/09/17 08:09:17;;;;;;;11.90;6.05;;;;;;;16.90;75.91;100093.00;4882041;29;20214;-75
2022/09/17 08:11:45;;;;;;;8.32;4.47;;;;;;;16.93;74.27;100092.75;4881663;29;20203;-73
2022/09/17 08:14:13;;;;;;;7.05;4.25;;;;;;;16.44;76.38;100086.44;4879338;29;20215;-74
2022/09/17 08:16:40;;;;;;;8.80;4.63;;;;;;;16.04;80.84;100101.09;4878709;29;20234;-74
2022/09/17 08:19:09;;;;;;;9.20;5.30;;;;;;;15.86;83.11;100104.28;4882309;29;20212;-73
2022/09/17 08:21:36;;;;;;;5.78;4.30;;;;;;;15.61;83.14;100089.72;4874579;29;20210;-75
2022/09/17 08:24:02;;;;;;;7.55;4.60;;;;;;;14.97;89.31;100097.81;4881364;29;20241;-71
2022/09/17 08:26:29;;;;;;;7.15;5.18;;;;;;;14.73;90.03;100100.34;4879903;29;20240;-72
2022/09/17 08:28:57;;;;;;;9.75;4.55;;;;;;;14.62;92.62;100102.91;4881399;29;20211;-72
2022/09/17 08:31:25;;;;;;;10.27;4.40;;;;;;;16.09;84.43;100108.06;4880205;29;20205;-71
2022/09/17 08:33:52;;;;;;;5.53;3.72;;;;;;;17.36;71.51;100094.84;4881178;29;20208;-71
2022/09/17 08:36:20;;;;;;;6.00;3.58;;;;;;;18.49;62.67;100102.03;4881514;29;20667;-71
2022/09/17 08:38:47;;;;;;;6.80;3.70;;;;;;;19.23;58.22;100094.97;4880661;29;20303;-71
2022/09/17 08:41:23;;;;;;;7.57;3.90;;;;;;;20.51;52.40;100090.84;4879185;29;20207;-72
2022/09/17 08:43:57;;;;;;;6.33;3.27;;;;;;;22.51;47.08;100096.41;4869441;29;20462;-71
2022/09/17 08:46:26;;;;;;;5.97;3.30;;;;;;;22.92;45.22;100106.94;4881131;29;20464;-72
2022/09/17 08:49:00;;;;;;;5.33;2.60;;;;;;;20.86;50.32;100103.16;4862447;29;20513;-72
2022/09/17 08:51:38;;;;;;;4.17;2.93;;;;;;;19.25;55.46;100107.50;4879143;29;20428;-71
2022/09/17 08:54:16;;;;;;;4.30;3.13;;;;;;;19.10;57.69;100104.19;4881220;29;20459;-71
2022/09/17 08:56:46;;;;;;;7.00;2.90;;;;;;;19.91;52.12;100098.97;4879940;29;20491;-72
2022/09/17 08:59:22;;;;;;;6.00;2.70;;;;;;;20.59;50.99;100093.75;4879458;29;20850;-73
2022/09/17 09:02:00;;;;;;;4.77;3.10;;;;;;;22.00;45.70;100092.28;4881150;29;20480;-71
2022/09/17 09:04:51;;;;;;;5.00;2.43;;;;;;;22.58;43.83;100103.00;4873177;29;20467;-72
2022/09/17 09:07:21;;;;;;;6.87;2.77;;;;;;;23.26;42.38;100102.47;4877433;29;20452;-73
2022/09/17 09:09:52;;;;;;;3.80;2.53;;;;;;;23.37;42.22;100100.53;4882000;29;20473;-72
2022/09/17 09:12:24;;;;;;;4.03;2.90;;;;;;;22.19;44.51;100105.06;4877876;29;20456;-72
2022/09/17 09:14:55;;;;;;;5.90;3.73;;;;;;;20.94;48.05;100099.69;4883060;29;20847;-72
2022/09/17 09:17:29;;;;;;;4.83;3.17;;;;;;;20.02;49.69;100098.03;4871708;29;20511;-73
2022/09/17 09:19:56;;;;;;;6.53;3.37;;;;;;;18.70;53.55;100103.97;4860916;29;20467;-72
2022/09/17 09:22:46;;;;;;;5.30;2.80;;;;;;;18.93;53.51;100100.19;4878994;29;20460;-72
2022/09/17 09:25:22;;;;;;;7.23;3.20;;;;;;;18.53;54.27;100087.16;4880119;29;20487;-73
2022/09/17 09:28:00;;;;;;;3.23;2.47;;;;;;;18.42;55.65;100099.97;4877416;29;20467;-71
2022/09/17 09:30:37;;;;;;;3.63;2.70;;;;;;;20.26;49.44;100083.13;4875845;29;20977;-71
2022/09/17 09:33:13;;;;;;;7.60;3.33;;;;;;;21.40;45.58;100089.88;4880595;29;20531;-73
2022/09/17 09:35:44;;;;;;;9.30;2.40;;;;;;;23.20;42.16;100102.25;4878868;29;20475;-73
2022/09/17 09:38:22;;;;;;;3.43;2.10;;;;;;;23.81;40.42;100101.38;4880000;29;20472;-70
2022/09/17 09:40:53;;;;;;;4.00;2.07;;;;;;;23.75;40.64;100101.16;4881123;29;20446;-71
2022/09/17 09:43:24;;;;;;;4.40;2.23;;;;;;;23.01;41.38;100101.41;4877360;29;20463;-72
2022/09/17 09:46:23;;;;;;;2.87;2.17;;;;;;;21.13;44.66;100105.16;4879254;29;20496;-72
2022/09/17 09:49:05;;;;;;;4.83;2.40;;;;;;;20.23;47.57;100092.47;4872223;29;20456;-72
2022/09/17 09:51:43;;;;;;;4.70;2.30;;;;;;;19.09;51.11;100102.47;4880392;29;20455;-72
2022/09/17 09:54:25;;;;;;;5.53;2.10;;;;;;;18.71;52.06;100100.25;4885058;29;20436;-72
2022/09/17 09:56:56;;;;;;;4.77;1.83;;;;;;;18.16;54.23;100092.09;4881292;29;20510;-72
2022/09/17 09:59:23;;;;;;;5.20;2.27;;;;;;;18.24;54.82;100086.00;4878322;29;20463;-72
2022/09/17 10:01:50;;;;;;;2.80;2.00;;;;;;;17.79;55.94;100097.75;4879532;29;20805;-72
2022/09/17 10:04:21;;;;;;;4.88;2.30;;;;;;;17.65;56.91;100103.44;4879844;29;20206;-71
2022/09/17 10:06:50;;;;;;;5.45;2.53;;;;;;;17.84;57.51;100109.19;4878633;29;20219;-73
2022/09/17 10:09:20;;;;;;;3.78;2.10;;;;;;;17.54;57.10;100104.28;4878736;29;20267;-73
2022/09/17 10:12:01;;;;;;;3.33;2.50;;;;;;;17.51;57.30;100121.72;4883218;29;20188;-73
2022/09/17 10:14:29;;;;;;;4.22;1.70;;;;;;;16.92;58.19;100115.50;4882378;29;20192;-73
2022/09/17 10:17:27;;;;;;;5.63;1.85;;;;;;;16.45;61.27;100109.91;4880040;29;20314;-72
2022/09/17 10:20:15;;;;;;;5.25;2.08;;;;;;;16.60;60.38;100111.47;4841014;29;20207;-72
2022/09/17 10:22:44;;;;;;;7.78;1.75;;;;;;;16.47;61.45;100118.81;4834285;29;20220;-72
2022/09/17 10:27:44;;;;;;;12.75;2.63;;;;;;;16.32;61.44;100119.94;4857409;29;20235;-72
2022/09/17 10:30:16;;;;;;;7.90;2.45;;;;;;;16.78;60.96;100125.53;4861460;29;20211;-73
2022/09/17 10:32:43;;;;;;;5.22;2.05;;;;;;;17.40;57.99;100142.63;4871820;29;20322;-70
2022/09/17 10:38:03;;;;;;;4.85;2.60;;;;;;;18.76;50.59;100122.53;5106792;27;20612;-74
2022/09/17 10:40:31;;;;;;;5.00;2.05;;;;;;;18.21;51.44;100130.72;5089672;28;20818;-72
2022/09/17 10:43:22;;;;;;;5.90;2.20;;;;;;;18.65;50.98;100130.75;5091536;28;20200;-72
2022/09/17 10:45:59;;;;;;;4.65;2.22;;;;;;;18.61;51.65;100118.38;5082921;28;20215;-73
2022/09/17 10:48:30;;;;;;;3.67;2.10;;;;;;;19.09;50.15;100123.47;5076758;28;20288;-73
2022/09/17 10:50:57;;;;;;;3.75;2.08;;;;;;;19.40;48.64;100115.34;5085554;28;20224;-72
2022/09/17 10:53:27;;;;;;;4.23;1.60;;;;;;;19.99;47.38;100120.19;5084643;28;20215;-72
2022/09/17 10:56:05;;;;;;;4.73;1.80;;;;;;;20.04;46.83;100115.16;5089034;28;20480;-71
2022/09/17 10:58:47;;;;;;;5.60;1.73;;;;;;;20.61;46.11;100115.50;5091631;28;20445;-73
2022/09/17 11:01:28;;;;;;;5.13;1.90;;;;;;;20.38;46.32;100114.84;5084158;28;20827;-72
2022/09/17 11:04:20;;;;;;;6.00;2.03;;;;;;;19.80;47.10;100104.53;5084146;28;20453;-71
2022/09/17 11:07:04;;;;;;;5.67;2.20;;;;;;;19.63;47.92;100119.69;5086987;28;20454;-72
2022/09/17 11:09:43;;;;;;;5.10;1.40;;;;;;;19.71;48.27;100129.94;5090260;28;20450;-73
2022/09/17 11:12:24;;;;;;;4.40;1.80;;;;;;;21.76;44.28;100117.50;5080589;28;20836;-71
2022/09/17 11:14:59;;;;;;;3.27;1.20;;;;;;;22.48;42.91;100113.19;5087347;28;20460;-74
2022/09/17 11:17:43;;;;;;;5.73;1.20;;;;;;;21.97;43.70;100120.03;5082364;28;20490;-74
2022/09/17 11:20:22;;;;;;;4.77;1.30;;;;;;;21.59;44.33;100108.16;5085532;28;20521;-72
2022/09/17 11:23:01;;;;;;;6.17;1.60;;;;;;;21.28;45.08;100105.59;5079856;28;20485;-74
2022/09/17 11:25:41;;;;;;;4.10;1.30;;;;;;;20.70;46.20;100103.72;5074960;28;20835;-73
2022/09/17 11:28:22;;;;;;;3.33;1.40;;;;;;;19.33;48.71;100091.31;5085796;28;20470;-73
2022/09/17 11:30:56;;;;;;;3.97;1.37;;;;;;;18.58;52.60;100102.28;5074925;28;20460;-72
2022/09/17 11:33:34;;;;;;;5.83;1.40;;;;;;;18.35;52.78;100094.16;5084280;28;20457;-73
2022/09/17 11:36:10;;;;;;;5.63;1.90;;;;;;;18.77;52.70;100097.03;5080648;28;21015;-73
2022/09/17 11:38:41;;;;;;;5.73;1.70;;;;;;;19.04;51.24;100098.41;5080856;28;20486;-73
2022/09/17 11:41:16;;;;;;;3.13;1.47;;;;;;;19.28;51.38;100087.25;5090524;28;20818;-74
2022/09/17 11:43:48;;;;;;;4.13;1.40;;;;;;;19.74;51.89;100088.69;5080953;28;20449;-74
2022/09/17 11:46:20;;;;;;;5.33;1.27;;;;;;;19.57;51.70;100088.28;5080428;28;20890;-73